PANC/ANC METAR and TAF weather

Enter ICAO airport designator
Station Type Date Time Source
PANC METAR 2019/05/26 00:53 UTC NOAA

PANC 260053Z 16004KT 10SM FEW012 BKN070 BKN110 OVC160 14/06 A2999 RMK AO2 SLP156 T01390061


Station Type Date Time Source
PANC Decoded METAR 2019/05/26 00:53 UTC NOAA

TED STEVENS ANCHORAGE INTERNATIONAL , AK, United States (PANC) 61-10N 150-02W 48M
May 25, 2019 - 08:53 PM EDT / 2019.05.26 0053 UTC
Wind: from the SSE (160 degrees) at 5 MPH (4 KT):0
Visibility: 10 mile(s):0
Sky conditions: overcast
Temperature: 57.0 F (13.9 C)
Dew Point: 43.0 F (6.1 C)
Relative Humidity: 59%
Pressure (altimeter): 29.99 in. Hg (1015 hPa)
ob: PANC 260053Z 16004KT 10SM FEW012 BKN070 BKN110 OVC160 14/06 A2999 RMK AO2 SLP156 T01390061
cycle: 1

Station Type Date Time Source
PANC TAF 2019/05/26 00:06 UTC NOAA

TAF
AMD PANC 260003Z 2600/2706 16012G20KT P6SM BKN060
TEMPO 2600/2604 15007KT
FM260400 VRB06KT P6SM SCT060 BKN100
FM260800 30004KT P6SM -RA OVC045
FM261200 34004KT P6SM SCT045 BKN070
FM262000 VRB05KT P6SM -RA OVC045

Example: see airport list